sensor_id;sensor_type;location;lat;lon;timestamp;pressure;altitude;pressure_sealevel;temperature;humidity
51452;BME280;37521;52.020;-1.740;2024-02-23T00:01:14;96775.22;;;0.39;100.00
51452;BME280;37521;52.020;-1.740;2024-02-23T00:03:44;96781.09;;;0.42;100.00
51452;BME280;37521;52.020;-1.740;2024-02-23T00:06:13;96768.00;;;0.44;100.00
51452;BME280;37521;52.020;-1.740;2024-02-23T00:08:42;96775.63;;;0.47;100.00
51452;BME280;37521;52.020;-1.740;2024-02-23T00:11:11;96775.53;;;0.48;100.00
51452;BME280;37521;52.020;-1.740;2024-02-23T00:13:40;96783.88;;;0.53;100.00
51452;BME280;37521;52.020;-1.740;2024-02-23T00:16:08;96771.47;;;0.59;100.00
51452;BME280;37521;52.020;-1.740;2024-02-23T00:18:38;96766.13;;;0.62;100.00
51452;BME280;37521;52.020;-1.740;2024-02-23T00:21:09;96763.34;;;0.65;100.00
51452;BME280;37521;52.020;-1.740;2024-02-23T00:23:37;96755.75;;;0.62;100.00
51452;BME280;37521;52.020;-1.740;2024-02-23T00:26:06;96751.53;;;0.59;100.00
51452;BME280;37521;52.020;-1.740;2024-02-23T00:28:35;96744.59;;;0.60;100.00
51452;BME280;37521;52.020;-1.740;2024-02-23T00:31:03;96740.78;;;0.65;100.00
51452;BME280;37521;52.020;-1.740;2024-02-23T00:33:32;96736.53;;;0.64;100.00
51452;BME280;37521;52.020;-1.740;2024-02-23T00:36:01;96734.13;;;0.61;100.00
51452;BME280;37521;52.020;-1.740;2024-02-23T00:38:31;96714.38;;;0.59;100.00
51452;BME280;37521;52.020;-1.740;2024-02-23T00:41:00;96711.03;;;0.57;100.00
51452;BME280;37521;52.020;-1.740;2024-02-23T00:43:29;96706.78;;;0.56;100.00
51452;BME280;37521;52.020;-1.740;2024-02-23T00:45:57;96719.75;;;0.56;100.00
51452;BME280;37521;52.020;-1.740;2024-02-23T00:48:26;96721.50;;;0.55;100.00
51452;BME280;37521;52.020;-1.740;2024-02-23T00:50:55;96712.91;;;0.54;100.00
51452;BME280;37521;52.020;-1.740;2024-02-23T00:53:23;96706.94;;;0.52;100.00
51452;BME280;37521;52.020;-1.740;2024-02-23T00:55:54;96709.72;;;0.49;100.00
51452;BME280;37521;52.020;-1.740;2024-02-23T00:58:23;96710.66;;;0.48;100.00
51452;BME280;37521;52.020;-1.740;2024-02-23T01:00:51;96702.03;;;0.48;100.00
51452;BME280;37521;52.020;-1.740;2024-02-23T01:03:20;96717.69;;;0.46;100.00
51452;BME280;37521;52.020;-1.740;2024-02-23T01:05:49;96710.75;;;0.47;100.00
51452;BME280;37521;52.020;-1.740;2024-02-23T01:08:18;96715.00;;;0.48;100.00
51452;BME280;37521;52.020;-1.740;2024-02-23T01:10:46;96701.75;;;0.52;100.00
51452;BME280;37521;52.020;-1.740;2024-02-23T01:13:17;96694.78;;;0.53;100.00
51452;BME280;37521;52.020;-1.740;2024-02-23T01:15:46;96702.31;;;0.58;100.00
51452;BME280;37521;52.020;-1.740;2024-02-23T01:18:14;96700.28;;;0.63;100.00
51452;BME280;37521;52.020;-1.740;2024-02-23T01:20:43;96696.56;;;0.67;100.00
51452;BME280;37521;52.020;-1.740;2024-02-23T01:23:12;96692.13;;;0.69;100.00
51452;BME280;37521;52.020;-1.740;2024-02-23T01:25:41;96703.25;;;0.71;100.00
51452;BME280;37521;52.020;-1.740;2024-02-23T01:28:09;96697.91;;;0.74;100.00
51452;BME280;37521;52.020;-1.740;2024-02-23T01:30:40;96706.53;;;0.74;100.00
51452;BME280;37521;52.020;-1.740;2024-02-23T01:33:08;96694.28;;;0.76;100.00
51452;BME280;37521;52.020;-1.740;2024-02-23T01:35:37;96690.84;;;0.76;100.00
51452;BME280;37521;52.020;-1.740;2024-02-23T01:38:06;96694.16;;;0.78;100.00
51452;BME280;37521;52.020;-1.740;2024-02-23T01:40:35;96694.16;;;0.78;100.00
51452;BME280;37521;52.020;-1.740;2024-02-23T01:43:04;96696.88;;;0.76;100.00
51452;BME280;37521;52.020;-1.740;2024-02-23T01:45:33;96684.91;;;0.74;100.00
51452;BME280;37521;52.020;-1.740;2024-02-23T01:48:04;96687.88;;;0.68;100.00
51452;BME280;37521;52.020;-1.740;2024-02-23T01:50:33;96676.19;;;0.61;100.00
51452;BME280;37521;52.020;-1.740;2024-02-23T01:53:02;96677.44;;;0.53;100.00
51452;BME280;37521;52.020;-1.740;2024-02-23T01:55:31;96678.75;;;0.46;100.00
51452;BME280;37521;52.020;-1.740;2024-02-23T01:58:04;96667.06;;;0.39;100.00
51452;BME280;37521;52.020;-1.740;2024-02-23T02:00:35;96672.44;;;0.36;100.00
51452;BME280;37521;52.020;-1.740;2024-02-23T02:03:05;96672.06;;;0.28;100.00
51452;BME280;37521;52.020;-1.740;2024-02-23T02:05:38;96667.97;;;0.24;100.00
51452;BME280;37521;52.020;-1.740;2024-02-23T02:08:08;96674.19;;;0.21;100.00
51452;BME280;37521;52.020;-1.740;2024-02-23T02:10:37;96670.75;;;0.21;100.00
51452;BME280;37521;52.020;-1.740;2024-02-23T02:13:06;96663.88;;;0.20;100.00
51452;BME280;37521;52.020;-1.740;2024-02-23T02:15:34;96670.09;;;0.17;100.00
51452;BME280;37521;52.020;-1.740;2024-02-23T02:18:05;96665.09;;;0.14;100.00
51452;BME280;37521;52.020;-1.740;2024-02-23T02:20:36;96657.22;;;0.16;100.00
51452;BME280;37521;52.020;-1.740;2024-02-23T02:23:05;96653.78;;;0.15;100.00
51452;BME280;37521;52.020;-1.740;2024-02-23T02:25:36;96656.53;;;0.12;100.00
51452;BME280;37521;52.020;-1.740;2024-02-23T02:28:06;96648.13;;;0.09;100.00
51452;BME280;37521;52.020;-1.740;2024-02-23T02:30:35;96651.44;;;0.11;100.00
51452;BME280;37521;52.020;-1.740;2024-02-23T02:33:06;96651.91;;;0.17;100.00
51452;BME280;37521;52.020;-1.740;2024-02-23T02:35:34;96651.56;;;0.23;100.00
51452;BME280;37521;52.020;-1.740;2024-02-23T02:38:03;96649.91;;;0.22;100.00
51452;BME280;37521;52.020;-1.740;2024-02-23T02:40:32;96654.06;;;0.25;100.00
51452;BME280;37521;52.020;-1.740;2024-02-23T02:43:01;96652.31;;;0.25;100.00
51452;BME280;37521;52.020;-1.740;2024-02-23T02:45:30;96646.38;;;0.23;100.00
51452;BME280;37521;52.020;-1.740;2024-02-23T02:47:59;96640.94;;;0.28;100.00
51452;BME280;37521;52.020;-1.740;2024-02-23T02:50:31;96639.06;;;0.30;100.00
51452;BME280;37521;52.020;-1.740;2024-02-23T02:53:00;96637.31;;;0.31;100.00
51452;BME280;37521;52.020;-1.740;2024-02-23T02:55:28;96633.16;;;0.28;100.00
51452;BME280;37521;52.020;-1.740;2024-02-23T02:57:57;96629.16;;;0.22;100.00
51452;BME280;37521;52.020;-1.740;2024-02-23T03:00:26;96624.31;;;0.16;100.00
51452;BME280;37521;52.020;-1.740;2024-02-23T03:02:55;96625.41;;;0.12;100.00
51452;BME280;37521;52.020;-1.740;2024-02-23T03:05:23;96622.19;;;0.09;100.00
51452;BME280;37521;52.020;-1.740;2024-02-23T03:07:54;96634.38;;;0.07;100.00
51452;BME280;37521;52.020;-1.740;2024-02-23T03:10:23;96628.28;;;0.08;100.00
51452;BME280;37521;52.020;-1.740;2024-02-23T03:12:51;96625.69;;;0.08;100.00
51452;BME280;37521;52.020;-1.740;2024-02-23T03:15:20;96637.16;;;0.04;100.00
51452;BME280;37521;52.020;-1.740;2024-02-23T03:17:49;96632.72;;;0.06;100.00
51452;BME280;37521;52.020;-1.740;2024-02-23T03:20:18;96643.84;;;0.08;100.00
51452;BME280;37521;52.020;-1.740;2024-02-23T03:22:46;96646.09;;;0.14;100.00
51452;BME280;37521;52.020;-1.740;2024-02-23T03:25:17;96649.44;;;0.16;100.00
51452;BME280;37521;52.020;-1.740;2024-02-23T03:27:45;96658.13;;;0.15;100.00
51452;BME280;37521;52.020;-1.740;2024-02-23T03:30:14;96655.59;;;0.13;100.00
51452;BME280;37521;52.020;-1.740;2024-02-23T03:32:43;96649.44;;;0.16;100.00
51452;BME280;37521;52.020;-1.740;2024-02-23T03:35:14;96650.00;;;0.21;100.00
51452;BME280;37521;52.020;-1.740;2024-02-23T03:37:44;96657.78;;;0.21;100.00
51452;BME280;37521;52.020;-1.740;2024-02-23T03:40:13;96653.59;;;0.18;100.00
51452;BME280;37521;52.020;-1.740;2024-02-23T03:42:43;96656.09;;;0.20;100.00
51452;BME280;37521;52.020;-1.740;2024-02-23T03:45:12;96638.34;;;0.28;100.00
51452;BME280;37521;52.020;-1.740;2024-02-23T03:47:40;96633.97;;;0.29;100.00
51452;BME280;37521;52.020;-1.740;2024-02-23T03:50:10;96633.31;;;0.25;100.00
51452;BME280;37521;52.020;-1.740;2024-02-23T03:52:39;96624.78;;;0.23;100.00
51452;BME280;37521;52.020;-1.740;2024-02-23T03:55:08;96605.78;;;0.22;100.00
51452;BME280;37521;52.020;-1.740;2024-02-23T03:57:37;96623.84;;;0.24;100.00
51452;BME280;37521;52.020;-1.740;2024-02-23T04:00:08;96622.19;;;0.23;100.00
51452;BME280;37521;52.020;-1.740;2024-02-23T04:02:41;96618.78;;;0.22;100.00
51452;BME280;37521;52.020;-1.740;2024-02-23T04:05:09;96619.59;;;0.23;100.00
51452;BME280;37521;52.020;-1.740;2024-02-23T04:07:38;96614.56;;;0.20;100.00
51452;BME280;37521;52.020;-1.740;2024-02-23T04:10:08;96617.38;;;0.17;100.00
51452;BME280;37521;52.020;-1.740;2024-02-23T04:12:36;96612.28;;;0.15;100.00
51452;BME280;37521;52.020;-1.740;2024-02-23T04:15:07;96614.97;;;0.14;100.00
51452;BME280;37521;52.020;-1.740;2024-02-23T04:17:36;96609.94;;;0.11;100.00
51452;BME280;37521;52.020;-1.740;2024-02-23T04:20:07;96614.41;;;0.09;100.00
51452;BME280;37521;52.020;-1.740;2024-02-23T04:22:37;96619.69;;;0.07;100.00
51452;BME280;37521;52.020;-1.740;2024-02-23T04:25:06;96616.31;;;0.05;100.00
51452;BME280;37521;52.020;-1.740;2024-02-23T04:27:35;96622.34;;;0.06;100.00
51452;BME280;37521;52.020;-1.740;2024-02-23T04:30:04;96625.97;;;0.03;100.00
51452;BME280;37521;52.020;-1.740;2024-02-23T04:32:35;96626.06;;;0.02;100.00
51452;BME280;37521;52.020;-1.740;2024-02-23T04:35:05;96627.88;;;-0.01;100.00
51452;BME280;37521;52.020;-1.740;2024-02-23T04:37:34;96639.13;;;0.00;100.00
51452;BME280;37521;52.020;-1.740;2024-02-23T04:40:04;96648.63;;;-0.01;100.00
51452;BME280;37521;52.020;-1.740;2024-02-23T04:42:33;96656.50;;;-0.02;100.00
51452;BME280;37521;52.020;-1.740;2024-02-23T04:45:03;96658.09;;;0.01;100.00
51452;BME280;37521;52.020;-1.740;2024-02-23T04:47:31;96656.59;;;-0.04;100.00
51452;BME280;37521;52.020;-1.740;2024-02-23T04:50:02;96659.38;;;-0.07;100.00
51452;BME280;37521;52.020;-1.740;2024-02-23T04:52:32;96652.44;;;-0.06;100.00
51452;BME280;37521;52.020;-1.740;2024-02-23T04:55:00;96658.53;;;-0.07;100.00
51452;BME280;37521;52.020;-1.740;2024-02-23T04:57:30;96670.66;;;-0.08;100.00
51452;BME280;37521;52.020;-1.740;2024-02-23T04:59:59;96669.66;;;-0.05;100.00
51452;BME280;37521;52.020;-1.740;2024-02-23T05:02:28;96676.59;;;-0.06;100.00
51452;BME280;37521;52.020;-1.740;2024-02-23T05:05:04;96678.44;;;-0.08;100.00
51452;BME280;37521;52.020;-1.740;2024-02-23T05:07:33;96674.00;;;-0.06;100.00
51452;BME280;37521;52.020;-1.740;2024-02-23T05:10:02;96671.22;;;-0.03;100.00
51452;BME280;37521;52.020;-1.740;2024-02-23T05:12:31;96673.66;;;0.01;100.00
51452;BME280;37521;52.020;-1.740;2024-02-23T05:14:59;96679.59;;;0.03;100.00
51452;BME280;37521;52.020;-1.740;2024-02-23T05:17:28;96680.53;;;0.02;100.00
51452;BME280;37521;52.020;-1.740;2024-02-23T05:19:57;96682.81;;;0.06;100.00
51452;BME280;37521;52.020;-1.740;2024-02-23T05:22:27;96685.34;;;0.08;100.00
51452;BME280;37521;52.020;-1.740;2024-02-23T05:24:56;96682.81;;;0.06;100.00
51452;BME280;37521;52.020;-1.740;2024-02-23T05:27:25;96686.25;;;0.07;100.00
51452;BME280;37521;52.020;-1.740;2024-02-23T05:29:54;96687.19;;;0.06;100.00
51452;BME280;37521;52.020;-1.740;2024-02-23T05:32:23;96686.63;;;0.01;100.00
51452;BME280;37521;52.020;-1.740;2024-02-23T05:34:52;96687.47;;;0.01;100.00
51452;BME280;37521;52.020;-1.740;2024-02-23T05:37:21;96696.81;;;0.04;100.00
51452;BME280;37521;52.020;-1.740;2024-02-23T05:39:51;96692.47;;;0.04;100.00
51452;BME280;37521;52.020;-1.740;2024-02-23T05:42:21;96682.09;;;0.04;100.00
51452;BME280;37521;52.020;-1.740;2024-02-23T05:44:49;96671.63;;;0.06;100.00
51452;BME280;37521;52.020;-1.740;2024-02-23T05:47:18;96678.56;;;0.05;100.00
51452;BME280;37521;52.020;-1.740;2024-02-23T05:49:49;96682.28;;;0.01;100.00
51452;BME280;37521;52.020;-1.740;2024-02-23T05:52:17;96684.94;;;-0.01;100.00
51452;BME280;37521;52.020;-1.740;2024-02-23T05:54:46;96681.78;;;-0.06;100.00
51452;BME280;37521;52.020;-1.740;2024-02-23T05:57:20;96681.78;;;-0.06;100.00
51452;BME280;37521;52.020;-1.740;2024-02-23T05:59:48;96687.91;;;-0.07;100.00
51452;BME280;37521;52.020;-1.740;2024-02-23T06:02:17;96688.47;;;-0.02;100.00
51452;BME280;37521;52.020;-1.740;2024-02-23T06:04:46;96700.50;;;-0.01;100.00
51452;BME280;37521;52.020;-1.740;2024-02-23T06:07:15;96711.63;;;0.02;100.00
51452;BME280;37521;52.020;-1.740;2024-02-23T06:09:44;96699.31;;;0.05;100.00
51452;BME280;37521;52.020;-1.740;2024-02-23T06:12:13;96700.91;;;0.08;100.00
51452;BME280;37521;52.020;-1.740;2024-02-23T06:14:43;96709.19;;;0.14;100.00
51452;BME280;37521;52.020;-1.740;2024-02-23T06:17:12;96708.16;;;0.17;100.00
51452;BME280;37521;52.020;-1.740;2024-02-23T06:19:40;96721.88;;;0.19;100.00
51452;BME280;37521;52.020;-1.740;2024-02-23T06:22:09;96720.19;;;0.18;100.00
51452;BME280;37521;52.020;-1.740;2024-02-23T06:24:39;96711.69;;;0.16;100.00
51452;BME280;37521;52.020;-1.740;2024-02-23T06:27:08;96719.47;;;0.16;100.00
51452;BME280;37521;52.020;-1.740;2024-02-23T06:29:36;96718.06;;;0.10;100.00
51452;BME280;37521;52.020;-1.740;2024-02-23T06:32:07;96722.31;;;0.11;100.00
51452;BME280;37521;52.020;-1.740;2024-02-23T06:34:35;96716.88;;;0.16;100.00
51452;BME280;37521;52.020;-1.740;2024-02-23T06:37:04;96719.56;;;0.14;100.00
51452;BME280;37521;52.020;-1.740;2024-02-23T06:39:33;96720.56;;;0.12;100.00
51452;BME280;37521;52.020;-1.740;2024-02-23T06:42:02;96716.19;;;0.12;100.00
51452;BME280;37521;52.020;-1.740;2024-02-23T06:44:32;96718.25;;;0.07;100.00
51452;BME280;37521;52.020;-1.740;2024-02-23T06:47:01;96718.25;;;0.07;100.00
51452;BME280;37521;52.020;-1.740;2024-02-23T06:49:31;96714.88;;;0.05;100.00
51452;BME280;37521;52.020;-1.740;2024-02-23T06:52:00;96709.69;;;0.05;100.00
51452;BME280;37521;52.020;-1.740;2024-02-23T06:54:28;96717.56;;;0.04;100.00
51452;BME280;37521;52.020;-1.740;2024-02-23T06:56:57;96714.88;;;0.05;100.00
51452;BME280;37521;52.020;-1.740;2024-02-23T06:59:26;96719.22;;;0.05;100.00
51452;BME280;37521;52.020;-1.740;2024-02-23T07:01:55;96721.25;;;-0.01;100.00
51452;BME280;37521;52.020;-1.740;2024-02-23T07:04:23;96723.44;;;-0.09;100.00
51452;BME280;37521;52.020;-1.740;2024-02-23T07:06:54;96727.31;;;-0.16;100.00
51452;BME280;37521;52.020;-1.740;2024-02-23T07:09:22;96719.97;;;-0.23;100.00
51452;BME280;37521;52.020;-1.740;2024-02-23T07:11:51;96730.31;;;-0.23;100.00
51452;BME280;37521;52.020;-1.740;2024-02-23T07:14:20;96744.38;;;-0.28;100.00
51452;BME280;37521;52.020;-1.740;2024-02-23T07:16:49;96742.06;;;-0.32;100.00
51452;BME280;37521;52.020;-1.740;2024-02-23T07:19:18;96742.06;;;-0.32;100.00
51452;BME280;37521;52.020;-1.740;2024-02-23T07:21:48;96750.22;;;-0.24;100.00
51452;BME280;37521;52.020;-1.740;2024-02-23T07:24:18;96744.72;;;-0.18;100.00
51452;BME280;37521;52.020;-1.740;2024-02-23T07:26:46;96755.09;;;-0.18;100.00
51452;BME280;37521;52.020;-1.740;2024-02-23T07:29:15;96753.22;;;-0.16;100.00
51452;BME280;37521;52.020;-1.740;2024-02-23T07:31:45;96760.09;;;-0.15;100.00
51452;BME280;37521;52.020;-1.740;2024-02-23T07:34:14;96763.94;;;-0.06;100.00
51452;BME280;37521;52.020;-1.740;2024-02-23T07:36:43;96766.75;;;0.05;100.00
51452;BME280;37521;52.020;-1.740;2024-02-23T07:39:11;96764.31;;;0.18;100.00
51452;BME280;37521;52.020;-1.740;2024-02-23T07:41:42;96760.09;;;0.31;100.00
51452;BME280;37521;52.020;-1.740;2024-02-23T07:44:11;96764.00;;;0.38;100.00
51452;BME280;37521;52.020;-1.740;2024-02-23T07:46:39;96758.66;;;0.41;100.00
51452;BME280;37521;52.020;-1.740;2024-02-23T07:49:09;96770.16;;;0.51;100.00
51452;BME280;37521;52.020;-1.740;2024-02-23T07:51:38;96767.31;;;0.56;100.00
51452;BME280;37521;52.020;-1.740;2024-02-23T07:54:06;96766.28;;;0.59;100.00
51452;BME280;37521;52.020;-1.740;2024-02-23T07:56:35;96777.44;;;0.61;100.00
51452;BME280;37521;52.020;-1.740;2024-02-23T07:59:05;96781.84;;;0.59;100.00
51452;BME280;37521;52.020;-1.740;2024-02-23T08:01:34;96777.69;;;0.56;100.00
51452;BME280;37521;52.020;-1.740;2024-02-23T08:04:03;96784.66;;;0.56;100.00
51452;BME280;37521;52.020;-1.740;2024-02-23T08:06:31;96794.75;;;0.60;100.00
51452;BME280;37521;52.020;-1.740;2024-02-23T08:09:00;96786.34;;;0.71;100.00
51452;BME280;37521;52.020;-1.740;2024-02-23T08:11:30;96792.94;;;0.76;100.00
51452;BME280;37521;52.020;-1.740;2024-02-23T08:14:04;96799.91;;;0.76;100.00
51452;BME280;37521;52.020;-1.740;2024-02-23T08:16:33;96803.06;;;0.81;100.00
51452;BME280;37521;52.020;-1.740;2024-02-23T08:19:02;96801.03;;;0.86;100.00
51452;BME280;37521;52.020;-1.740;2024-02-23T08:21:31;96805.84;;;0.92;100.00
51452;BME280;37521;52.020;-1.740;2024-02-23T08:23:59;96802.31;;;0.93;100.00
51452;BME280;37521;52.020;-1.740;2024-02-23T08:26:28;96801.44;;;0.94;100.00
51452;BME280;37521;52.020;-1.740;2024-02-23T08:28:57;96804.03;;;0.94;100.00
51452;BME280;37521;52.020;-1.740;2024-02-23T08:31:27;96809.22;;;0.94;100.00
51452;BME280;37521;52.020;-1.740;2024-02-23T08:33:56;96812.56;;;0.96;100.00
51452;BME280;37521;52.020;-1.740;2024-02-23T08:36:25;96810.44;;;1.03;100.00
51452;BME280;37521;52.020;-1.740;2024-02-23T08:38:54;96804.78;;;1.11;100.00
51452;BME280;37521;52.020;-1.740;2024-02-23T08:41:23;96813.13;;;1.16;100.00
51452;BME280;37521;52.020;-1.740;2024-02-23T08:43:51;96810.34;;;1.19;100.00
51452;BME280;37521;52.020;-1.740;2024-02-23T08:46:22;96812.78;;;1.22;100.00
51452;BME280;37521;52.020;-1.740;2024-02-23T08:48:52;96821.03;;;1.28;100.00
51452;BME280;37521;52.020;-1.740;2024-02-23T08:51:21;96827.63;;;1.34;100.00
51452;BME280;37521;52.020;-1.740;2024-02-23T08:53:50;96831.34;;;1.30;100.00
51452;BME280;37521;52.020;-1.740;2024-02-23T08:56:18;96840.22;;;1.26;100.00
51452;BME280;37521;52.020;-1.740;2024-02-23T08:58:47;96838.47;;;1.26;100.00
51452;BME280;37521;52.020;-1.740;2024-02-23T09:01:16;96842.00;;;1.25;100.00
51452;BME280;37521;52.020;-1.740;2024-02-23T09:03:45;96836.06;;;1.23;100.00
51452;BME280;37521;52.020;-1.740;2024-02-23T09:06:15;96841.00;;;1.28;100.00
51452;BME280;37521;52.020;-1.740;2024-02-23T09:08:44;96829.56;;;1.30;100.00
51452;BME280;37521;52.020;-1.740;2024-02-23T09:11:12;96828.63;;;1.31;100.00
51452;BME280;37521;52.020;-1.740;2024-02-23T09:13:42;96831.97;;;1.33;100.00
51452;BME280;37521;52.020;-1.740;2024-02-23T09:16:11;96839.59;;;1.36;100.00
51452;BME280;37521;52.020;-1.740;2024-02-23T09:18:41;96844.53;;;1.41;100.00
51452;BME280;37521;52.020;-1.740;2024-02-23T09:21:10;96846.75;;;1.47;100.00
51452;BME280;37521;52.020;-1.740;2024-02-23T09:23:40;96853.34;;;1.53;100.00
51452;BME280;37521;52.020;-1.740;2024-02-23T09:26:09;96855.66;;;1.57;100.00
51452;BME280;37521;52.020;-1.740;2024-02-23T09:28:39;96852.13;;;1.58;100.00
51452;BME280;37521;52.020;-1.740;2024-02-23T09:31:09;96851.84;;;1.63;100.00
51452;BME280;37521;52.020;-1.740;2024-02-23T09:33:38;96855.28;;;1.63;100.00
51452;BME280;37521;52.020;-1.740;2024-02-23T09:36:07;96849.88;;;1.67;100.00
51452;BME280;37521;52.020;-1.740;2024-02-23T09:38:37;96845.97;;;1.74;100.00
51452;BME280;37521;52.020;-1.740;2024-02-23T09:41:15;96855.19;;;1.79;100.00
51452;BME280;37521;52.020;-1.740;2024-02-23T09:43:47;96862.72;;;1.84;100.00
51452;BME280;37521;52.020;-1.740;2024-02-23T09:46:16;96868.38;;;1.90;100.00
51452;BME280;37521;52.020;-1.740;2024-02-23T09:48:47;96860.09;;;1.98;100.00
51452;BME280;37521;52.020;-1.740;2024-02-23T09:51:17;96863.03;;;2.06;100.00
51452;BME280;37521;52.020;-1.740;2024-02-23T09:53:49;96874.00;;;2.11;100.00
51452;BME280;37521;52.020;-1.740;2024-02-23T09:56:21;96871.84;;;2.18;100.00
51452;BME280;37521;52.020;-1.740;2024-02-23T09:59:02;96877.22;;;2.29;100.00
51452;BME280;37521;52.020;-1.740;2024-02-23T10:01:32;96873.09;;;2.39;100.00
51452;BME280;37521;52.020;-1.740;2024-02-23T10:04:01;96878.69;;;2.48;100.00
51452;BME280;37521;52.020;-1.740;2024-02-23T10:06:32;96884.00;;;2.59;100.00
51452;BME280;37521;52.020;-1.740;2024-02-23T10:09:01;96882.41;;;2.70;100.00
51452;BME280;37521;52.020;-1.740;2024-02-23T10:11:33;96892.22;;;2.80;100.00
51452;BME280;37521;52.020;-1.740;2024-02-23T10:14:03;96890.16;;;2.85;100.00
51452;BME280;37521;52.020;-1.740;2024-02-23T10:16:31;96884.00;;;2.86;100.00
51452;BME280;37521;52.020;-1.740;2024-02-23T10:19:01;96890.25;;;2.83;100.00
51452;BME280;37521;52.020;-1.740;2024-02-23T10:21:32;96891.25;;;2.81;100.00
51452;BME280;37521;52.020;-1.740;2024-02-23T10:24:01;96882.72;;;2.79;100.00
51452;BME280;37521;52.020;-1.740;2024-02-23T10:26:30;96886.28;;;2.78;100.00
51452;BME280;37521;52.020;-1.740;2024-02-23T10:29:00;96893.03;;;2.80;100.00
51452;BME280;37521;52.020;-1.740;2024-02-23T10:31:35;96891.91;;;2.84;100.00
51452;BME280;37521;52.020;-1.740;2024-02-23T10:34:07;96900.06;;;2.92;100.00
51452;BME280;37521;52.020;-1.740;2024-02-23T10:36:41;96899.25;;;3.05;100.00
51452;BME280;37521;52.020;-1.740;2024-02-23T10:39:15;96899.06;;;3.20;100.00
51452;BME280;37521;52.020;-1.740;2024-02-23T10:41:47;96902.88;;;3.42;100.00
51452;BME280;37521;52.020;-1.740;2024-02-23T10:44:24;96903.50;;;3.58;100.00
51452;BME280;37521;52.020;-1.740;2024-02-23T10:46:53;96901.00;;;3.69;100.00
51452;BME280;37521;52.020;-1.740;2024-02-23T10:49:23;96903.50;;;3.83;100.00
51452;BME280;37521;52.020;-1.740;2024-02-23T10:51:54;96905.16;;;3.97;100.00
51452;BME280;37521;52.020;-1.740;2024-02-23T10:54:23;96911.31;;;4.09;100.00
51452;BME280;37521;52.020;-1.740;2024-02-23T10:56:52;96909.94;;;4.16;100.00
51452;BME280;37521;52.020;-1.740;2024-02-23T10:59:25;96916.19;;;4.26;100.00
51452;BME280;37521;52.020;-1.740;2024-02-23T11:01:56;96907.06;;;4.32;100.00
51452;BME280;37521;52.020;-1.740;2024-02-23T11:04:27;96912.94;;;4.35;100.00
51452;BME280;37521;52.020;-1.740;2024-02-23T11:06:59;96910.81;;;4.41;100.00
51452;BME280;37521;52.020;-1.740;2024-02-23T11:09:35;96912.28;;;4.45;100.00
51452;BME280;37521;52.020;-1.740;2024-02-23T11:12:04;96908.19;;;4.41;100.00
51452;BME280;37521;52.020;-1.740;2024-02-23T11:14:37;96913.41;;;4.41;100.00
51452;BME280;37521;52.020;-1.740;2024-02-23T11:17:06;96909.38;;;4.36;100.00
51452;BME280;37521;52.020;-1.740;2024-02-23T11:19:36;96908.63;;;4.34;100.00
51452;BME280;37521;52.020;-1.740;2024-02-23T11:22:05;96906.25;;;4.31;100.00
51452;BME280;37521;52.020;-1.740;2024-02-23T11:24:49;96911.34;;;4.33;100.00
51452;BME280;37521;52.020;-1.740;2024-02-23T11:27:24;96921.19;;;4.29;100.00
51452;BME280;37521;52.020;-1.740;2024-02-23T11:30:02;96912.63;;;4.27;100.00
51452;BME280;37521;52.020;-1.740;2024-02-23T11:32:37;96921.09;;;4.31;100.00
51452;BME280;37521;52.020;-1.740;2024-02-23T11:35:10;96913.25;;;4.31;100.00
51452;BME280;37521;52.020;-1.740;2024-02-23T11:37:47;96920.97;;;4.32;100.00
51452;BME280;37521;52.020;-1.740;2024-02-23T11:40:17;96917.09;;;4.38;100.00
51452;BME280;37521;52.020;-1.740;2024-02-23T11:42:47;96918.00;;;4.50;100.00
51452;BME280;37521;52.020;-1.740;2024-02-23T11:45:18;96914.97;;;4.56;100.00
51452;BME280;37521;52.020;-1.740;2024-02-23T11:47:46;96906.78;;;4.60;100.00
51452;BME280;37521;52.020;-1.740;2024-02-23T11:50:15;96911.41;;;4.57;100.00
51452;BME280;37521;52.020;-1.740;2024-02-23T11:52:47;96914.44;;;4.51;100.00
51452;BME280;37521;52.020;-1.740;2024-02-23T11:55:19;96916.34;;;4.49;100.00
51452;BME280;37521;52.020;-1.740;2024-02-23T11:57:51;96918.41;;;4.56;100.00
51452;BME280;37521;52.020;-1.740;2024-02-23T12:00:35;96908.34;;;4.87;100.00
51452;BME280;37521;52.020;-1.740;2024-02-23T12:03:04;96903.28;;;5.32;100.00
51452;BME280;37521;52.020;-1.740;2024-02-23T12:05:34;96909.22;;;5.69;100.00
51452;BME280;37521;52.020;-1.740;2024-02-23T12:08:04;96896.19;;;6.03;100.00
51452;BME280;37521;52.020;-1.740;2024-02-23T12:10:34;96896.16;;;6.25;100.00
51452;BME280;37521;52.020;-1.740;2024-02-23T12:13:03;96900.69;;;6.12;100.00
51452;BME280;37521;52.020;-1.740;2024-02-23T12:15:32;96903.19;;;6.02;100.00
51452;BME280;37521;52.020;-1.740;2024-02-23T12:18:03;96904.72;;;6.27;100.00
51452;BME280;37521;52.020;-1.740;2024-02-23T12:20:33;96896.13;;;6.47;100.00
51452;BME280;37521;52.020;-1.740;2024-02-23T12:23:03;96892.66;;;6.47;100.00
51452;BME280;37521;52.020;-1.740;2024-02-23T12:25:32;96896.84;;;6.27;100.00
51452;BME280;37521;52.020;-1.740;2024-02-23T12:28:02;96892.13;;;5.98;100.00
51452;BME280;37521;52.020;-1.740;2024-02-23T12:30:31;96899.44;;;5.71;100.00
51452;BME280;37521;52.020;-1.740;2024-02-23T12:33:06;96900.97;;;5.51;100.00
51452;BME280;37521;52.020;-1.740;2024-02-23T12:35:36;96904.03;;;5.45;100.00
51452;BME280;37521;52.020;-1.740;2024-02-23T12:38:05;96909.97;;;5.36;100.00
51452;BME280;37521;52.020;-1.740;2024-02-23T12:40:34;96900.66;;;5.32;100.00
51452;BME280;37521;52.020;-1.740;2024-02-23T12:43:03;96901.75;;;5.29;100.00
51452;BME280;37521;52.020;-1.740;2024-02-23T12:45:32;96902.19;;;5.23;100.00
51452;BME280;37521;52.020;-1.740;2024-02-23T12:48:00;96908.59;;;5.19;100.00
51452;BME280;37521;52.020;-1.740;2024-02-23T12:50:31;96914.00;;;5.05;100.00
51452;BME280;37521;52.020;-1.740;2024-02-23T12:53:00;96917.50;;;4.92;100.00
51452;BME280;37521;52.020;-1.740;2024-02-23T12:55:28;96912.47;;;4.78;100.00
51452;BME280;37521;52.020;-1.740;2024-02-23T12:57:57;96917.84;;;4.64;100.00
51452;BME280;37521;52.020;-1.740;2024-02-23T13:00:26;96909.22;;;4.51;100.00